Time;durP1;ratioP1;P1;durP2;ratioP2;P2;SDS_P1;SDS_P2;PMS_P1;PMS_P2;Temp;Humidity;BMP_temperature;BMP_pressure;BME280_temperature;BME280_humidity;BME280_pressure;Samples;Min_cycle;Max_cycle;Signal;HPM_P1;HPM_P2
2021/05/10 00:00:16;;;;;;;;;;;18.50;88.30;;;;;;2079633;28;1926;-58
2021/05/10 00:01:36;;;;;;;;;;;18.50;88.30;;;;;;2081036;28;1495;-58
2021/05/10 00:02:55;;;;;;;;;;;18.50;88.40;;;;;;2080824;28;1233;-56
2021/05/10 00:04:14;;;;;;;;;;;18.50;88.30;;;;;;2079023;28;1363;-59
2021/05/10 00:05:33;;;;;;;;;;;18.50;88.20;;;;;;2079191;28;1347;-58
2021/05/10 00:06:53;;;;;;;;;;;18.50;88.20;;;;;;2077702;28;1776;-57
2021/05/10 00:08:12;;;;;;;;;;;18.50;89.00;;;;;;2078925;28;1422;-57
2021/05/10 00:09:31;;;;;;;;;;;18.50;89.00;;;;;;2077439;28;1454;-56
2021/05/10 00:10:50;;;;;;;;;;;18.50;88.30;;;;;;2080038;28;1480;-57
2021/05/10 00:12:09;;;;;;;;;;;18.50;88.30;;;;;;2080052;28;1519;-56
2021/05/10 00:13:29;;;;;;;;;;;18.50;88.30;;;;;;2079291;28;1312;-56
2021/05/10 00:14:48;;;;;;;;;;;18.50;88.20;;;;;;2079146;28;1411;-57
2021/05/10 00:16:08;;;;;;;;;;;18.50;88.20;;;;;;2078909;28;1969;-57
2021/05/10 00:17:27;;;;;;;;;;;18.50;88.20;;;;;;2079199;28;1462;-55
2021/05/10 00:18:47;;;;;;;;;;;18.50;88.30;;;;;;2076763;28;1480;-56
2021/05/10 00:20:06;;;;;;;;;;;18.50;88.30;;;;;;2078324;28;1383;-58
2021/05/10 00:21:26;;;;;;;;;;;18.50;88.20;;;;;;2067995;28;1422;-56
2021/05/10 00:22:45;;;;;;;;;;;18.50;88.20;;;;;;2064613;28;1391;-56
2021/05/10 00:24:04;;;;;;;;;;;18.50;88.20;;;;;;2078499;28;1443;-56
2021/05/10 00:25:24;;;;;;;;;;;18.50;88.20;;;;;;2078856;28;1584;-58
2021/05/10 00:26:43;;;;;;;;;;;18.50;88.90;;;;;;2070242;28;1513;-56
2021/05/10 00:28:02;;;;;;;;;;;18.50;88.30;;;;;;2061810;28;1482;-56
2021/05/10 00:29:22;;;;;;;;;;;18.50;88.30;;;;;;2072479;28;1375;-57
2021/05/10 00:30:41;;;;;;;;;;;18.50;88.20;;;;;;2079054;28;1396;-58
2021/05/10 00:32:01;;;;;;;;;;;18.50;88.10;;;;;;2078989;28;1385;-56
2021/05/10 00:33:20;;;;;;;;;;;18.50;88.10;;;;;;2070275;28;1109;-57
2021/05/10 00:34:39;;;;;;;;;;;18.50;88.10;;;;;;2076579;28;1935;-57
2021/05/10 00:35:58;;;;;;;;;;;18.50;88.00;;;;;;2080740;28;1910;-58
2021/05/10 00:37:18;;;;;;;;;;;18.50;88.10;;;;;;2080333;28;1178;-58
2021/05/10 00:38:37;;;;;;;;;;;18.50;88.00;;;;;;2078723;28;1453;-56
2021/05/10 00:39:56;;;;;;;;;;;18.50;88.00;;;;;;2079813;28;1373;-56
2021/05/10 00:41:15;;;;;;;;;;;18.50;88.20;;;;;;2082611;28;1358;-57
2021/05/10 00:42:34;;;;;;;;;;;18.50;88.10;;;;;;2077379;28;1925;-57
2021/05/10 00:43:53;;;;;;;;;;;18.50;88.80;;;;;;2080021;28;1360;-59
2021/05/10 00:45:12;;;;;;;;;;;18.50;88.80;;;;;;2079945;28;1508;-56
2021/05/10 00:46:32;;;;;;;;;;;18.50;88.10;;;;;;2070841;28;1556;-59
2021/05/10 00:47:51;;;;;;;;;;;18.50;88.10;;;;;;2075594;28;1241;-56
2021/05/10 00:49:11;;;;;;;;;;;18.40;87.90;;;;;;2079027;28;1447;-56
2021/05/10 00:50:30;;;;;;;;;;;18.50;88.10;;;;;;2078708;28;1476;-57
2021/05/10 00:51:49;;;;;;;;;;;18.40;88.00;;;;;;2081059;28;1306;-56
2021/05/10 00:53:08;;;;;;;;;;;18.40;87.80;;;;;;2076409;28;1360;-58
2021/05/10 00:54:28;;;;;;;;;;;18.50;88.10;;;;;;2075835;28;1535;-56
2021/05/10 00:55:47;;;;;;;;;;;18.40;88.00;;;;;;2075677;28;1898;-64
2021/05/10 00:57:06;;;;;;;;;;;18.40;88.00;;;;;;2075093;28;1657;-63
2021/05/10 00:58:25;;;;;;;;;;;18.40;87.80;;;;;;2072452;28;1410;-63
2021/05/10 00:59:45;;;;;;;;;;;18.40;87.90;;;;;;2075005;28;1746;-63
2021/05/10 01:01:04;;;;;;;;;;;18.40;87.90;;;;;;2061878;28;1412;-63
2021/05/10 01:02:24;;;;;;;;;;;18.40;88.20;;;;;;2072113;28;1489;-62
2021/05/10 01:03:44;;;;;;;;;;;18.40;88.50;;;;;;2069842;28;1495;-63
2021/05/10 01:05:03;;;;;;;;;;;18.40;88.60;;;;;;2066279;28;1504;-64
2021/05/10 01:06:23;;;;;;;;;;;18.40;88.70;;;;;;2071332;28;1467;-65
2021/05/10 01:07:42;;;;;;;;;;;18.40;88.70;;;;;;2066172;28;1487;-61
2021/05/10 01:09:01;;;;;;;;;;;18.40;88.70;;;;;;2071283;28;1470;-65
2021/05/10 01:10:21;;;;;;;;;;;18.40;88.70;;;;;;2070784;28;1515;-63
2021/05/10 01:11:40;;;;;;;;;;;18.40;88.60;;;;;;2071257;28;1229;-63
2021/05/10 01:13:00;;;;;;;;;;;18.40;88.60;;;;;;2071497;28;1552;-65
2021/05/10 01:14:19;;;;;;;;;;;18.40;88.60;;;;;;2065818;28;1253;-57
2021/05/10 01:15:39;;;;;;;;;;;18.40;88.60;;;;;;2065841;28;1415;-56
2021/05/10 01:16:58;;;;;;;;;;;18.40;89.20;;;;;;2073929;28;1526;-56
2021/05/10 01:18:20;;;;;;;;;;;18.40;89.10;;;;;;2076689;28;1575;-57
2021/05/10 01:19:39;;;;;;;;;;;18.40;88.40;;;;;;2076308;28;1451;-57
2021/05/10 01:20:59;;;;;;;;;;;18.40;88.40;;;;;;2078094;28;1361;-57
2021/05/10 01:22:18;;;;;;;;;;;18.40;88.40;;;;;;2068860;28;1355;-58
2021/05/10 01:23:37;;;;;;;;;;;18.40;88.40;;;;;;2065403;28;1111;-57
2021/05/10 01:24:57;;;;;;;;;;;18.40;88.40;;;;;;2075519;28;1370;-57
2021/05/10 01:26:16;;;;;;;;;;;18.40;88.50;;;;;;2076690;28;1502;-57
2021/05/10 01:37:39;;;;;;;;;;;18.40;88.50;;;;;;2087752;28;1114;-52
2021/05/10 01:38:58;;;;;;;;;;;18.40;88.20;;;;;;2087817;28;999;-50
2021/05/10 01:40:17;;;;;;;;;;;18.40;88.20;;;;;;2087301;28;1400;-51
2021/05/10 01:41:36;;;;;;;;;;;18.40;88.10;;;;;;2088450;28;1223;-56
2021/05/10 01:42:56;;;;;;;;;;;18.40;88.00;;;;;;2088091;28;1184;-48
2021/05/10 01:44:15;;;;;;;;;;;18.40;87.90;;;;;;2087191;28;1531;-51
2021/05/10 01:45:34;;;;;;;;;;;18.40;88.20;;;;;;2084973;28;1019;-52
2021/05/10 01:46:53;;;;;;;;;;;18.40;88.10;;;;;;2076046;28;1522;-56
2021/05/10 01:48:13;;;;;;;;;;;18.40;88.10;;;;;;2082285;28;1868;-51
2021/05/10 01:49:32;;;;;;;;;;;18.40;88.20;;;;;;2086076;28;1187;-52
2021/05/10 01:50:51;;;;;;;;;;;18.40;88.10;;;;;;2076064;28;1620;-51
2021/05/10 01:52:11;;;;;;;;;;;18.40;88.20;;;;;;2081131;28;1143;-50
2021/05/10 01:53:32;;;;;;;;;;;18.40;88.10;;;;;;2074892;28;1561;-52
2021/05/10 01:54:52;;;;;;;;;;;18.40;88.10;;;;;;2081407;28;1423;-52
2021/05/10 01:56:11;;;;;;;;;;;18.40;88.10;;;;;;2076386;28;1962;-54
2021/05/10 01:57:31;;;;;;;;;;;18.40;88.10;;;;;;2080674;28;1515;-52
2021/05/10 01:58:50;;;;;;;;;;;18.30;87.90;;;;;;2084428;28;1500;-54
2021/05/10 02:00:12;;;;;;;;;;;18.40;88.10;;;;;;2076042;28;1639;-51
2021/05/10 02:01:32;;;;;;;;;;;18.40;88.20;;;;;;2073698;28;1503;-51
2021/05/10 02:02:51;;;;;;;;;;;18.30;88.00;;;;;;2082583;28;1433;-50
2021/05/10 02:04:10;;;;;;;;;;;18.30;88.10;;;;;;2066239;28;1507;-51
2021/05/10 02:05:30;;;;;;;;;;;18.30;88.10;;;;;;2077269;28;1576;-51
2021/05/10 02:06:49;;;;;;;;;;;18.30;88.00;;;;;;2065381;28;1481;-52
2021/05/10 02:08:09;;;;;;;;;;;18.30;88.00;;;;;;2071680;28;1402;-50
2021/05/10 02:09:28;;;;;;;;;;;18.30;88.10;;;;;;2077312;28;1347;-52
2021/05/10 02:10:51;;;;;;;;;;;18.30;88.10;;;;;;2080897;28;1447;-53
2021/05/10 02:12:10;;;;;;;;;;;18.30;88.00;;;;;;2084222;28;1493;-56
2021/05/10 02:13:29;;;;;;;;;;;18.30;88.10;;;;;;2084059;28;1251;-53
2021/05/10 02:14:48;;;;;;;;;;;18.30;88.00;;;;;;2083275;28;1557;-52
2021/05/10 02:16:07;;;;;;;;;;;18.30;88.00;;;;;;2083698;28;1981;-52
2021/05/10 02:17:27;;;;;;;;;;;18.30;87.70;;;;;;2077024;28;1519;-54
2021/05/10 02:18:46;;;;;;;;;;;18.30;87.60;;;;;;2082736;28;1460;-52
2021/05/10 02:20:06;;;;;;;;;;;18.30;87.80;;;;;;2077381;28;1521;-54
2021/05/10 02:21:29;;;;;;;;;;;18.30;87.60;;;;;;2068892;28;1280;-52
2021/05/10 02:22:54;;;;;;;;;;;18.40;87.90;;;;;;2083385;28;1438;-55
2021/05/10 02:24:13;;;;;;;;;;;18.30;87.70;;;;;;2074725;28;1468;-55
2021/05/10 02:25:40;;;;;;;;;;;18.30;87.80;;;;;;2080835;28;1372;-50
2021/05/10 02:26:59;;;;;;;;;;;18.30;87.70;;;;;;2076657;28;1516;-51
2021/05/10 02:28:19;;;;;;;;;;;18.30;87.60;;;;;;2083008;28;1193;-50
2021/05/10 02:29:38;;;;;;;;;;;18.30;87.70;;;;;;2084634;28;1479;-52
2021/05/10 02:30:58;;;;;;;;;;;18.30;87.70;;;;;;2084860;28;1373;-53
2021/05/10 02:32:17;;;;;;;;;;;18.30;87.70;;;;;;2084662;28;1731;-52
2021/05/10 02:33:36;;;;;;;;;;;18.30;87.60;;;;;;2069646;28;1205;-52
2021/05/10 02:34:56;;;;;;;;;;;18.30;87.70;;;;;;2079247;28;1453;-54
2021/05/10 02:36:15;;;;;;;;;;;18.30;87.70;;;;;;2086276;28;1961;-51
2021/05/10 02:37:34;;;;;;;;;;;18.30;87.70;;;;;;2086543;28;1489;-54
2021/05/10 02:38:53;;;;;;;;;;;18.30;87.70;;;;;;2086298;28;1211;-53
2021/05/10 02:40:13;;;;;;;;;;;18.30;87.70;;;;;;2085807;28;1438;-52
2021/05/10 02:41:32;;;;;;;;;;;18.30;87.50;;;;;;2086725;28;1468;-50
2021/05/10 02:42:51;;;;;;;;;;;18.30;87.70;;;;;;2085518;28;1356;-53
2021/05/10 02:44:10;;;;;;;;;;;18.30;87.60;;;;;;2075950;28;1479;-51
2021/05/10 02:45:29;;;;;;;;;;;18.30;88.50;;;;;;2076284;28;1472;-50
2021/05/10 02:46:48;;;;;;;;;;;18.30;88.40;;;;;;2076155;28;1380;-51
2021/05/10 02:48:08;;;;;;;;;;;18.30;87.60;;;;;;2070217;28;1653;-51
2021/05/10 02:49:27;;;;;;;;;;;18.30;87.70;;;;;;2072757;28;1094;-51
2021/05/10 02:50:46;;;;;;;;;;;18.30;87.40;;;;;;2082871;28;1353;-49
2021/05/10 02:52:05;;;;;;;;;;;18.30;87.30;;;;;;2071290;28;1385;-53
2021/05/10 02:53:25;;;;;;;;;;;18.30;87.30;;;;;;2078857;28;1383;-54
2021/05/10 02:54:44;;;;;;;;;;;18.30;87.50;;;;;;2084070;28;1447;-50
2021/05/10 02:56:03;;;;;;;;;;;18.30;87.50;;;;;;2087400;28;2012;-48
2021/05/10 02:57:22;;;;;;;;;;;18.30;87.30;;;;;;2076384;28;1545;-49
2021/05/10 02:58:42;;;;;;;;;;;18.30;87.60;;;;;;2084292;28;1489;-48
2021/05/10 03:00:02;;;;;;;;;;;18.30;87.60;;;;;;2086406;28;1429;-49
2021/05/10 03:01:21;;;;;;;;;;;18.30;87.60;;;;;;2084389;28;1364;-49
2021/05/10 03:02:40;;;;;;;;;;;18.30;87.60;;;;;;2078493;28;1377;-47
2021/05/10 03:03:59;;;;;;;;;;;18.30;87.70;;;;;;2077632;28;1474;-49
2021/05/10 03:05:18;;;;;;;;;;;18.30;88.30;;;;;;2082512;28;1542;-49
2021/05/10 03:06:37;;;;;;;;;;;18.20;87.60;;;;;;2078367;28;1588;-49
2021/05/10 03:07:58;;;;;;;;;;;18.20;87.50;;;;;;2082579;28;1351;-49
2021/05/10 03:09:17;;;;;;;;;;;18.30;87.50;;;;;;2086292;28;1476;-49
2021/05/10 03:10:36;;;;;;;;;;;18.20;87.50;;;;;;2077370;28;1513;-49
2021/05/10 03:11:55;;;;;;;;;;;18.20;87.60;;;;;;2074229;28;1126;-50
2021/05/10 03:13:15;;;;;;;;;;;18.20;87.60;;;;;;2076981;28;1548;-51
2021/05/10 03:14:34;;;;;;;;;;;18.20;87.60;;;;;;2080306;28;1508;-50
2021/05/10 03:15:53;;;;;;;;;;;18.20;87.50;;;;;;2087243;28;1898;-53
2021/05/10 03:17:12;;;;;;;;;;;18.20;87.50;;;;;;2070812;28;1397;-52
2021/05/10 03:18:32;;;;;;;;;;;18.20;87.60;;;;;;2079985;28;1554;-50
2021/05/10 03:19:51;;;;;;;;;;;18.20;87.50;;;;;;2085462;28;1343;-51
2021/05/10 03:21:10;;;;;;;;;;;18.30;88.40;;;;;;2085141;28;1095;-51
2021/05/10 03:22:29;;;;;;;;;;;18.20;88.20;;;;;;2076591;28;1129;-52
2021/05/10 03:23:49;;;;;;;;;;;18.20;87.50;;;;;;2085820;28;1419;-54
2021/05/10 03:25:09;;;;;;;;;;;18.20;87.60;;;;;;2076336;28;1484;-52
2021/05/10 03:26:30;;;;;;;;;;;18.20;87.50;;;;;;2073194;28;1461;-52
2021/05/10 03:27:49;;;;;;;;;;;18.20;87.20;;;;;;2081770;28;1424;-52
2021/05/10 03:29:08;;;;;;;;;;;18.20;87.00;;;;;;2084968;28;1598;-53
2021/05/10 03:30:28;;;;;;;;;;;18.20;87.20;;;;;;2070600;28;1399;-50
2021/05/10 03:31:47;;;;;;;;;;;18.20;87.10;;;;;;2067423;28;998;-52
2021/05/10 03:33:07;;;;;;;;;;;18.20;87.30;;;;;;2057899;28;727;-51
2021/05/10 03:34:26;;;;;;;;;;;18.20;87.20;;;;;;2072553;28;1467;-51
2021/05/10 03:35:45;;;;;;;;;;;18.20;86.80;;;;;;2082288;28;712;-52
2021/05/10 03:37:05;;;;;;;;;;;18.20;86.80;;;;;;2084848;28;1553;-52
2021/05/10 03:38:24;;;;;;;;;;;18.20;86.90;;;;;;2088900;28;977;-50
2021/05/10 03:39:43;;;;;;;;;;;18.30;87.30;;;;;;2090986;28;939;-52
2021/05/10 03:41:02;;;;;;;;;;;18.20;84.10;;;;;;2090741;28;742;-50
2021/05/10 03:42:21;;;;;;;;;;;18.30;80.20;;;;;;2090933;28;754;-52
2021/05/10 03:43:41;;;;;;;;;;;18.30;78.70;;;;;;2081155;28;767;-51
2021/05/10 03:45:00;;;;;;;;;;;18.30;80.10;;;;;;2078663;28;1390;-50
2021/05/10 03:46:20;;;;;;;;;;;18.40;80.40;;;;;;2078801;28;767;-53
2021/05/10 03:47:39;;;;;;;;;;;18.40;81.00;;;;;;2079207;28;760;-50
2021/05/10 03:48:59;;;;;;;;;;;18.40;81.20;;;;;;2082500;28;768;-51
2021/05/10 03:50:19;;;;;;;;;;;18.30;81.70;;;;;;2073600;28;808;-51
2021/05/10 03:51:38;;;;;;;;;;;18.30;82.10;;;;;;2070069;28;725;-50
2021/05/10 03:52:57;;;;;;;;;;;18.30;83.30;;;;;;2078585;28;727;-55
2021/05/10 03:54:16;;;;;;;;;;;18.30;83.90;;;;;;2072794;28;1455;-51
2021/05/10 03:55:37;;;;;;;;;;;18.30;83.60;;;;;;2085577;28;1534;-52
2021/05/10 03:56:58;;;;;;;;;;;18.30;83.70;;;;;;2085677;28;1520;-52
2021/05/10 03:58:18;;;;;;;;;;;18.30;84.40;;;;;;2075747;28;1306;-52
2021/05/10 03:59:37;;;;;;;;;;;18.20;84.50;;;;;;2072589;28;962;-53
2021/05/10 04:00:56;;;;;;;;;;;18.20;84.90;;;;;;2076836;28;1099;-52
2021/05/10 04:02:16;;;;;;;;;;;18.20;85.30;;;;;;2085175;28;1112;-53
2021/05/10 04:03:45;;;;;;;;;;;18.20;85.70;;;;;;2088615;28;1243;-51
2021/05/10 04:06:39;;;;;;;;;;;18.20;85.80;;;;;;2085615;28;1209;-54
2021/05/10 04:08:09;;;;;;;;;;;18.20;86.20;;;;;;2076739;28;1184;-54
2021/05/10 04:11:02;;;;;;;;;;;18.20;86.60;;;;;;2084871;28;1404;-54
2021/05/10 04:14:01;;;;;;;;;;;18.20;86.70;;;;;;2084537;28;1193;-53
2021/05/10 04:15:21;;;;;;;;;;;18.20;87.50;;;;;;2085593;28;1400;-55
2021/05/10 04:16:40;;;;;;;;;;;18.20;88.00;;;;;;2085572;28;1902;-55
2021/05/10 04:18:00;;;;;;;;;;;18.20;88.20;;;;;;2079760;28;1649;-52
2021/05/10 04:19:19;;;;;;;;;;;18.20;88.30;;;;;;2087811;28;1359;-54
2021/05/10 04:20:38;;;;;;;;;;;18.20;88.50;;;;;;2082578;28;1253;-53
2021/05/10 04:21:57;;;;;;;;;;;18.20;88.70;;;;;;2083947;28;1375;-55
2021/05/10 04:23:18;;;;;;;;;;;18.20;89.00;;;;;;2085934;28;1729;-50
2021/05/10 04:24:37;;;;;;;;;;;18.20;89.30;;;;;;2087085;28;1818;-51
2021/05/10 04:25:56;;;;;;;;;;;18.20;89.60;;;;;;2064933;28;1191;-54
2021/05/10 04:27:15;;;;;;;;;;;18.20;89.60;;;;;;2071783;28;1282;-53
2021/05/10 04:28:35;;;;;;;;;;;18.20;89.70;;;;;;2078899;28;1388;-53
2021/05/10 04:29:54;;;;;;;;;;;18.20;89.30;;;;;;2088532;28;1137;-52
2021/05/10 04:31:13;;;;;;;;;;;18.20;89.90;;;;;;2085452;28;1423;-51
2021/05/10 04:32:32;;;;;;;;;;;18.20;89.50;;;;;;2085897;28;1610;-53
2021/05/10 04:33:51;;;;;;;;;;;18.20;88.40;;;;;;2086286;28;1634;-52
2021/05/10 04:35:11;;;;;;;;;;;18.20;88.20;;;;;;2084991;28;1713;-54
2021/05/10 04:36:30;;;;;;;;;;;18.20;88.00;;;;;;2075435;28;1906;-52
2021/05/10 04:37:50;;;;;;;;;;;18.20;87.70;;;;;;2083517;28;1109;-50
2021/05/10 04:39:09;;;;;;;;;;;18.20;87.80;;;;;;2072934;28;1245;-54
2021/05/10 04:40:28;;;;;;;;;;;18.20;87.10;;;;;;2076374;28;1664;-52
2021/05/10 04:41:47;;;;;;;;;;;18.20;87.50;;;;;;2084436;28;1090;-51
2021/05/10 04:43:07;;;;;;;;;;;18.20;87.00;;;;;;2085346;28;1011;-52
2021/05/10 04:44:26;;;;;;;;;;;18.20;86.80;;;;;;2077821;28;1640;-53
2021/05/10 04:45:45;;;;;;;;;;;18.20;87.50;;;;;;2084846;28;1240;-53
2021/05/10 04:47:04;;;;;;;;;;;18.20;87.70;;;;;;2088219;28;1451;-55
2021/05/10 04:48:23;;;;;;;;;;;18.20;88.40;;;;;;2085564;28;1223;-53
2021/05/10 04:49:43;;;;;;;;;;;18.20;87.50;;;;;;2082259;28;1020;-53
2021/05/10 04:51:02;;;;;;;;;;;18.20;88.90;;;;;;2070231;28;1485;-50
2021/05/10 04:52:21;;;;;;;;;;;18.20;88.60;;;;;;2080394;28;1123;-52
2021/05/10 04:53:40;;;;;;;;;;;18.20;89.20;;;;;;2079850;28;1501;-53
2021/05/10 04:55:00;;;;;;;;;;;18.20;89.40;;;;;;2081896;28;1500;-54
2021/05/10 04:56:19;;;;;;;;;;;18.20;89.20;;;;;;2080977;28;1918;-51
2021/05/10 04:57:38;;;;;;;;;;;18.20;89.00;;;;;;2081707;28;1058;-51
2021/05/10 04:58:57;;;;;;;;;;;18.20;89.20;;;;;;2078603;28;981;-53
2021/05/10 05:00:17;;;;;;;;;;;18.20;87.70;;;;;;2066499;28;1093;-50
2021/05/10 05:01:36;;;;;;;;;;;18.20;85.60;;;;;;2078173;28;1207;-52
2021/05/10 05:02:55;;;;;;;;;;;18.20;83.00;;;;;;2075002;28;920;-51
2021/05/10 05:04:15;;;;;;;;;;;18.20;83.20;;;;;;2076393;28;1539;-53
2021/05/10 05:05:35;;;;;;;;;;;18.30;82.40;;;;;;2085631;28;1039;-51
2021/05/10 05:06:54;;;;;;;;;;;18.30;82.00;;;;;;2087714;28;1514;-54
2021/05/10 05:08:14;;;;;;;;;;;18.40;81.80;;;;;;2085109;28;1164;-55
2021/05/10 05:09:33;;;;;;;;;;;18.40;82.00;;;;;;2086925;28;930;-52
2021/05/10 05:10:52;;;;;;;;;;;18.40;82.50;;;;;;2084608;28;1505;-50
2021/05/10 05:12:12;;;;;;;;;;;18.40;83.00;;;;;;2076557;28;1053;-50
2021/05/10 05:13:31;;;;;;;;;;;18.40;83.30;;;;;;2085371;28;899;-50
2021/05/10 05:14:50;;;;;;;;;;;18.30;83.70;;;;;;2077595;28;1437;-54
2021/05/10 05:16:10;;;;;;;;;;;18.30;84.20;;;;;;2078583;28;1910;-53
2021/05/10 05:17:29;;;;;;;;;;;18.30;84.60;;;;;;2077221;28;1044;-50
2021/05/10 05:18:48;;;;;;;;;;;18.30;85.10;;;;;;2079356;28;1089;-51
2021/05/10 05:20:08;;;;;;;;;;;18.30;85.50;;;;;;2085097;28;1240;-50
2021/05/10 05:21:26;;;;;;;;;;;18.30;86.00;;;;;;2084876;28;1168;-50
2021/05/10 05:22:46;;;;;;;;;;;18.30;86.20;;;;;;2082549;28;1356;-52
2021/05/10 05:24:05;;;;;;;;;;;18.20;87.10;;;;;;2084043;28;1041;-52
2021/05/10 05:25:24;;;;;;;;;;;18.20;87.30;;;;;;2083526;28;1405;-49
2021/05/10 05:26:43;;;;;;;;;;;18.20;86.90;;;;;;2077398;28;1360;-49
2021/05/10 05:28:02;;;;;;;;;;;18.20;87.10;;;;;;2082188;28;1121;-51
2021/05/10 05:29:22;;;;;;;;;;;18.20;87.30;;;;;;2077461;28;1158;-53
2021/05/10 05:30:42;;;;;;;;;;;18.20;87.40;;;;;;2075665;28;1314;-52
2021/05/10 05:32:01;;;;;;;;;;;18.20;87.50;;;;;;2084314;28;1093;-50
2021/05/10 05:33:21;;;;;;;;;;;18.20;87.60;;;;;;2085726;28;1197;-51
2021/05/10 05:34:40;;;;;;;;;;;18.20;87.80;;;;;;2084177;28;1448;-52
2021/05/10 05:35:59;;;;;;;;;;;18.20;87.90;;;;;;2081841;28;1946;-53
2021/05/10 05:37:18;;;;;;;;;;;18.20;88.00;;;;;;2076151;28;1098;-50
2021/05/10 05:38:37;;;;;;;;;;;18.20;88.10;;;;;;2081084;28;1184;-51
2021/05/10 05:39:57;;;;;;;;;;;18.20;88.20;;;;;;2084184;28;1581;-52
2021/05/10 05:41:16;;;;;;;;;;;18.20;89.10;;;;;;2076156;28;1192;-53
2021/05/10 05:42:35;;;;;;;;;;;18.20;89.30;;;;;;2085295;28;1250;-52
2021/05/10 05:43:54;;;;;;;;;;;18.20;88.60;;;;;;2085699;28;1383;-52
2021/05/10 05:45:13;;;;;;;;;;;18.20;88.40;;;;;;2082766;28;1189;-49
2021/05/10 05:46:37;;;;;;;;;;;18.30;88.40;;;;;;2081814;28;1577;-52
2021/05/10 05:47:56;;;;;;;;;;;18.30;87.80;;;;;;2071800;28;1118;-49
2021/05/10 05:49:16;;;;;;;;;;;18.30;87.50;;;;;;2077167;28;1235;-50
2021/05/10 05:50:35;;;;;;;;;;;18.30;87.40;;;;;;2074207;28;1023;-53
2021/05/10 05:51:54;;;;;;;;;;;18.30;87.60;;;;;;2072843;28;791;-51
2021/05/10 05:53:14;;;;;;;;;;;18.30;87.60;;;;;;2085366;28;1198;-51
2021/05/10 05:54:32;;;;;;;;;;;18.30;87.70;;;;;;2076001;28;1437;-51
2021/05/10 05:55:52;;;;;;;;;;;18.30;88.60;;;;;;2080736;28;1187;-51
2021/05/10 05:57:11;;;;;;;;;;;18.20;88.00;;;;;;2084258;28;1357;-52
2021/05/10 05:58:30;;;;;;;;;;;18.20;88.30;;;;;;2082538;28;927;-51
2021/05/10 05:59:49;;;;;;;;;;;18.20;88.30;;;;;;2075590;28;1235;-51
2021/05/10 06:01:09;;;;;;;;;;;18.20;88.50;;;;;;2081740;28;905;-50
2021/05/10 06:02:28;;;;;;;;;;;18.20;88.70;;;;;;2087486;28;1376;-51
2021/05/10 06:03:47;;;;;;;;;;;18.20;88.80;;;;;;2084614;28;1546;-49
2021/05/10 06:05:07;;;;;;;;;;;18.20;89.00;;;;;;2067417;28;1436;-52
2021/05/10 06:06:26;;;;;;;;;;;18.20;89.10;;;;;;2068707;28;1397;-53
2021/05/10 06:07:46;;;;;;;;;;;18.20;89.20;;;;;;2077210;28;816;-50
2021/05/10 06:09:07;;;;;;;;;;;18.20;89.30;;;;;;2084901;28;1024;-49
2021/05/10 06:10:28;;;;;;;;;;;18.20;89.30;;;;;;2085468;28;1039;-52
2021/05/10 06:11:47;;;;;;;;;;;18.20;89.50;;;;;;2082158;28;1444;-54
2021/05/10 06:13:06;;;;;;;;;;;18.20;89.50;;;;;;2084957;28;916;-50
2021/05/10 06:14:26;;;;;;;;;;;18.20;89.60;;;;;;2074811;28;1413;-52
2021/05/10 06:15:45;;;;;;;;;;;18.20;89.60;;;;;;2078611;28;1226;-52
2021/05/10 06:17:04;;;;;;;;;;;18.20;89.70;;;;;;2063871;28;1066;-56
2021/05/10 06:18:23;;;;;;;;;;;18.20;89.70;;;;;;2069979;28;989;-54
2021/05/10 06:19:43;;;;;;;;;;;18.20;89.70;;;;;;2076983;28;1154;-52
2021/05/10 06:21:03;;;;;;;;;;;18.20;89.80;;;;;;2073537;28;1433;-50
2021/05/10 06:22:22;;;;;;;;;;;18.20;89.80;;;;;;2082970;28;958;-52
2021/05/10 06:23:41;;;;;;;;;;;18.20;89.80;;;;;;2080054;28;1046;-52
2021/05/10 06:25:01;;;;;;;;;;;18.20;89.80;;;;;;2074818;28;1700;-54
2021/05/10 06:26:20;;;;;;;;;;;18.20;90.10;;;;;;2058284;28;1141;-50
2021/05/10 06:27:39;;;;;;;;;;;18.20;89.70;;;;;;2062515;28;1313;-50
2021/05/10 06:28:59;;;;;;;;;;;18.20;89.70;;;;;;2076185;28;1585;-52
2021/05/10 06:30:18;;;;;;;;;;;18.20;89.70;;;;;;2086007;28;1002;-52
2021/05/10 06:31:37;;;;;;;;;;;18.20;89.70;;;;;;2081236;28;1237;-52
2021/05/10 06:32:56;;;;;;;;;;;18.20;89.80;;;;;;2083456;28;1351;-52
2021/05/10 06:34:15;;;;;;;;;;;18.20;89.80;;;;;;2075469;28;1450;-51
2021/05/10 06:35:35;;;;;;;;;;;18.20;89.80;;;;;;2084050;28;1345;-50
2021/05/10 06:36:54;;;;;;;;;;;18.10;89.80;;;;;;2085301;28;1914;-53
2021/05/10 06:38:13;;;;;;;;;;;18.20;89.90;;;;;;2081303;28;870;-50
2021/05/10 06:39:32;;;;;;;;;;;18.20;89.90;;;;;;2086853;28;1249;-49
2021/05/10 06:40:51;;;;;;;;;;;18.20;90.00;;;;;;2081948;28;1032;-51
2021/05/10 06:42:11;;;;;;;;;;;18.20;90.00;;;;;;2085269;28;1070;-53
2021/05/10 06:43:30;;;;;;;;;;;18.20;90.30;;;;;;2085162;28;1243;-53
2021/05/10 06:44:49;;;;;;;;;;;18.20;90.00;;;;;;2072145;28;1578;-51
2021/05/10 06:46:09;;;;;;;;;;;18.10;89.90;;;;;;2068853;28;1380;-52
2021/05/10 06:47:28;;;;;;;;;;;18.10;89.90;;;;;;2077104;28;1067;-53
2021/05/10 06:48:47;;;;;;;;;;;18.10;89.90;;;;;;2082579;28;1151;-50
2021/05/10 06:50:07;;;;;;;;;;;18.10;89.90;;;;;;2075589;28;1175;-55
2021/05/10 06:51:26;;;;;;;;;;;18.20;90.00;;;;;;2080855;28;1274;-49
2021/05/10 06:52:45;;;;;;;;;;;18.20;91.70;;;;;;2085361;28;1268;-51
2021/05/10 06:54:05;;;;;;;;;;;18.20;93.20;;;;;;2083544;28;1249;-54
2021/05/10 06:55:24;;;;;;;;;;;18.20;94.10;;;;;;2063376;28;1555;-52
2021/05/10 06:56:43;;;;;;;;;;;18.30;96.70;;;;;;2070904;28;1958;-51
2021/05/10 06:58:09;;;;;;;;;;;18.40;95.80;;;;;;2081459;28;1159;-51
2021/05/10 06:59:29;;;;;;;;;;;18.40;96.10;;;;;;2084671;28;1009;-50
2021/05/10 07:00:50;;;;;;;;;;;18.40;95.60;;;;;;2071817;28;1144;-50
2021/05/10 07:02:09;;;;;;;;;;;18.40;95.10;;;;;;2078923;28;1276;-53
2021/05/10 07:03:28;;;;;;;;;;;18.40;94.90;;;;;;2084391;28;1104;-50
2021/05/10 07:04:48;;;;;;;;;;;18.40;94.70;;;;;;2084466;28;1485;-53
2021/05/10 07:06:07;;;;;;;;;;;18.40;94.70;;;;;;2075824;28;1302;-50
2021/05/10 07:07:26;;;;;;;;;;;18.40;94.40;;;;;;2068245;28;1688;-52
2021/05/10 07:08:45;;;;;;;;;;;18.40;94.40;;;;;;2077492;28;1379;-49
2021/05/10 07:10:05;;;;;;;;;;;18.30;94.40;;;;;;2072006;28;1386;-51
2021/05/10 07:11:24;;;;;;;;;;;18.40;94.20;;;;;;2071936;28;1132;-51
2021/05/10 07:12:43;;;;;;;;;;;18.30;93.70;;;;;;2074769;28;1020;-52
2021/05/10 07:14:03;;;;;;;;;;;18.30;93.60;;;;;;2071420;28;1211;-50
2021/05/10 07:15:22;;;;;;;;;;;18.30;93.50;;;;;;2079815;28;1303;-55
2021/05/10 07:16:41;;;;;;;;;;;18.30;93.80;;;;;;2083044;28;1906;-51
2021/05/10 07:18:04;;;;;;;;;;;18.30;93.60;;;;;;2074660;28;1192;-53
2021/05/10 07:19:23;;;;;;;;;;;18.30;93.60;;;;;;2070149;28;1419;-49
2021/05/10 07:20:43;;;;;;;;;;;18.30;93.90;;;;;;2081635;28;1258;-52
2021/05/10 07:22:02;;;;;;;;;;;18.30;93.60;;;;;;2085404;28;1254;-52
2021/05/10 07:23:22;;;;;;;;;;;18.30;94.00;;;;;;2076844;28;1279;-50
2021/05/10 07:24:41;;;;;;;;;;;18.30;93.60;;;;;;2080760;28;1517;-52
2021/05/10 07:26:00;;;;;;;;;;;18.30;93.50;;;;;;2089423;28;1033;-49
2021/05/10 07:27:19;;;;;;;;;;;18.30;93.40;;;;;;2087240;28;1454;-51
2021/05/10 07:28:39;;;;;;;;;;;18.30;93.40;;;;;;2085001;28;1173;-51
2021/05/10 07:29:58;;;;;;;;;;;18.30;93.50;;;;;;2081025;28;1588;-50
2021/05/10 07:31:18;;;;;;;;;;;18.30;93.50;;;;;;2072271;28;1202;-50
2021/05/10 07:32:37;;;;;;;;;;;18.30;93.50;;;;;;2080607;28;1056;-54
2021/05/10 07:33:56;;;;;;;;;;;18.30;93.50;;;;;;2086799;28;1083;-48
2021/05/10 07:35:15;;;;;;;;;;;18.30;93.30;;;;;;2076203;28;1432;-53
2021/05/10 07:36:34;;;;;;;;;;;18.30;93.30;;;;;;2080237;28;1894;-54
2021/05/10 07:37:53;;;;;;;;;;;18.30;93.30;;;;;;2080397;28;1105;-51
2021/05/10 07:39:13;;;;;;;;;;;18.30;93.20;;;;;;2073451;28;897;-50
2021/05/10 07:40:32;;;;;;;;;;;18.30;93.20;;;;;;2084990;28;1062;-50
2021/05/10 07:41:51;;;;;;;;;;;18.30;93.20;;;;;;2083706;28;1170;-50
2021/05/10 07:43:11;;;;;;;;;;;18.30;93.10;;;;;;2085637;28;1389;-52
2021/05/10 07:44:30;;;;;;;;;;;18.30;93.00;;;;;;2083068;28;1869;-53
2021/05/10 07:45:49;;;;;;;;;;;18.30;93.00;;;;;;2086390;28;1277;-51
2021/05/10 07:47:08;;;;;;;;;;;18.30;92.90;;;;;;2085183;28;1613;-53
2021/05/10 07:48:28;;;;;;;;;;;18.30;92.90;;;;;;2085261;28;984;-50
2021/05/10 07:49:47;;;;;;;;;;;18.30;92.90;;;;;;2083310;28;1439;-52
2021/05/10 07:51:07;;;;;;;;;;;18.30;92.80;;;;;;2085826;28;1196;-53
2021/05/10 07:52:28;;;;;;;;;;;18.30;92.80;;;;;;2079184;28;1217;-50
2021/05/10 07:53:47;;;;;;;;;;;18.30;92.80;;;;;;2074009;28;1303;-49
2021/05/10 07:55:06;;;;;;;;;;;18.30;92.70;;;;;;2078232;28;1530;-50
2021/05/10 07:56:26;;;;;;;;;;;18.30;92.70;;;;;;2078057;28;1933;-50
2021/05/10 07:57:45;;;;;;;;;;;18.30;93.00;;;;;;2079586;28;1227;-50
2021/05/10 07:59:09;;;;;;;;;;;18.30;92.70;;;;;;2086288;28;1065;-52
2021/05/10 08:00:47;;;;;;;;;;;18.30;92.70;;;;;;2073129;28;1235;-52
2021/05/10 08:02:06;;;;;;;;;;;18.30;92.70;;;;;;2085308;28;978;-52
2021/05/10 08:03:27;;;;;;;;;;;18.30;92.60;;;;;;2083455;28;1110;-53
2021/05/10 08:04:46;;;;;;;;;;;18.30;93.00;;;;;;2081334;28;1374;-52